sensor_id;sensor_type;location;lat;lon;timestamp;pressure;altitude;pressure_sealevel;temperature;humidity
33185;BME280;19550;42.872;25.494;2022-11-14T00:02:24;97538.69;;;3.56;100.00
33185;BME280;19550;42.872;25.494;2022-11-14T00:04:52;97533.53;;;3.59;100.00
33185;BME280;19550;42.872;25.494;2022-11-14T00:07:19;97539.84;;;3.60;100.00
33185;BME280;19550;42.872;25.494;2022-11-14T00:09:46;97534.88;;;3.57;100.00
33185;BME280;19550;42.872;25.494;2022-11-14T00:12:13;97529.22;;;3.64;100.00
33185;BME280;19550;42.872;25.494;2022-11-14T00:14:40;97534.34;;;3.60;100.00
33185;BME280;19550;42.872;25.494;2022-11-14T00:17:07;97525.56;;;3.58;100.00
33185;BME280;19550;42.872;25.494;2022-11-14T00:19:33;97526.56;;;3.52;100.00
33185;BME280;19550;42.872;25.494;2022-11-14T00:22:02;97528.63;;;3.45;100.00
33185;BME280;19550;42.872;25.494;2022-11-14T00:24:28;97533.59;;;3.48;100.00
33185;BME280;19550;42.872;25.494;2022-11-14T00:26:55;97529.78;;;3.49;100.00
33185;BME280;19550;42.872;25.494;2022-11-14T00:29:22;97524.06;;;3.50;100.00
33185;BME280;19550;42.872;25.494;2022-11-14T00:31:49;97528.47;;;3.51;100.00
33185;BME280;19550;42.872;25.494;2022-11-14T00:34:16;97527.63;;;3.51;100.00
33185;BME280;19550;42.872;25.494;2022-11-14T00:36:43;97526.97;;;3.44;100.00
33185;BME280;19550;42.872;25.494;2022-11-14T00:39:13;97526.97;;;3.44;100.00
33185;BME280;19550;42.872;25.494;2022-11-14T00:41:40;97520.56;;;3.38;100.00
33185;BME280;19550;42.872;25.494;2022-11-14T00:44:07;97519.31;;;3.29;100.00
33185;BME280;19550;42.872;25.494;2022-11-14T00:46:35;97512.66;;;3.25;100.00
33185;BME280;19550;42.872;25.494;2022-11-14T00:49:03;97523.25;;;3.22;100.00
33185;BME280;19550;42.872;25.494;2022-11-14T00:51:30;97521.22;;;3.29;100.00
33185;BME280;19550;42.872;25.494;2022-11-14T00:53:57;97507.75;;;3.27;100.00
33185;BME280;19550;42.872;25.494;2022-11-14T00:56:25;97510.16;;;3.40;100.00
33185;BME280;19550;42.872;25.494;2022-11-14T00:58:52;97511.16;;;3.34;100.00
33185;BME280;19550;42.872;25.494;2022-11-14T01:01:19;97514.56;;;3.25;100.00
33185;BME280;19550;42.872;25.494;2022-11-14T01:03:47;97506.00;;;3.21;100.00
33185;BME280;19550;42.872;25.494;2022-11-14T01:06:14;97505.59;;;3.12;100.00
33185;BME280;19550;42.872;25.494;2022-11-14T01:08:41;97506.69;;;3.00;100.00
33185;BME280;19550;42.872;25.494;2022-11-14T01:11:09;97503.13;;;2.99;100.00
33185;BME280;19550;42.872;25.494;2022-11-14T01:13:38;97505.06;;;2.99;100.00
33185;BME280;19550;42.872;25.494;2022-11-14T01:16:06;97510.03;;;3.02;100.00
33185;BME280;19550;42.872;25.494;2022-11-14T01:18:33;97506.31;;;3.08;100.00
33185;BME280;19550;42.872;25.494;2022-11-14T01:21:03;97505.06;;;2.99;100.00
33185;BME280;19550;42.872;25.494;2022-11-14T01:23:30;97501.22;;;3.00;100.00
33185;BME280;19550;42.872;25.494;2022-11-14T01:26:00;97489.03;;;2.91;100.00
33185;BME280;19550;42.872;25.494;2022-11-14T01:28:28;97494.13;;;2.87;100.00
33185;BME280;19550;42.872;25.494;2022-11-14T01:30:56;97497.13;;;2.86;100.00
33185;BME280;19550;42.872;25.494;2022-11-14T01:33:32;97490.38;;;2.76;100.00
33185;BME280;19550;42.872;25.494;2022-11-14T01:35:59;97494.19;;;2.75;100.00
33185;BME280;19550;42.872;25.494;2022-11-14T01:38:26;97490.44;;;2.65;100.00
33185;BME280;19550;42.872;25.494;2022-11-14T01:40:53;97487.09;;;2.63;100.00
33185;BME280;19550;42.872;25.494;2022-11-14T01:43:24;97486.13;;;2.69;100.00
33185;BME280;19550;42.872;25.494;2022-11-14T01:45:55;97485.88;;;2.70;100.00
33185;BME280;19550;42.872;25.494;2022-11-14T01:48:26;97481.97;;;2.66;100.00
33185;BME280;19550;42.872;25.494;2022-11-14T01:50:56;97487.88;;;2.75;100.00
33185;BME280;19550;42.872;25.494;2022-11-14T01:53:24;97483.00;;;2.77;100.00
33185;BME280;19550;42.872;25.494;2022-11-14T01:55:53;97477.75;;;2.75;100.00
33185;BME280;19550;42.872;25.494;2022-11-14T01:58:22;97477.75;;;2.75;100.00
33185;BME280;19550;42.872;25.494;2022-11-14T02:00:49;97478.59;;;2.76;100.00
33185;BME280;19550;42.872;25.494;2022-11-14T02:03:18;97482.66;;;2.73;100.00
33185;BME280;19550;42.872;25.494;2022-11-14T02:05:46;97486.13;;;2.69;100.00
33185;BME280;19550;42.872;25.494;2022-11-14T02:08:14;97485.94;;;2.59;100.00
33185;BME280;19550;42.872;25.494;2022-11-14T02:10:42;97478.56;;;2.59;100.00
33185;BME280;19550;42.872;25.494;2022-11-14T02:13:08;97481.78;;;2.56;100.00
33185;BME280;19550;42.872;25.494;2022-11-14T02:15:36;97473.66;;;2.61;100.00
33185;BME280;19550;42.872;25.494;2022-11-14T02:18:04;97456.22;;;2.51;100.00
33185;BME280;19550;42.872;25.494;2022-11-14T02:20:36;97464.28;;;2.57;100.00
33185;BME280;19550;42.872;25.494;2022-11-14T02:23:08;97467.84;;;2.58;100.00
33185;BME280;19550;42.872;25.494;2022-11-14T02:25:35;97467.16;;;2.51;100.00
33185;BME280;19550;42.872;25.494;2022-11-14T02:28:03;97472.88;;;2.49;100.00
33185;BME280;19550;42.872;25.494;2022-11-14T02:30:31;97472.78;;;2.44;100.00
33185;BME280;19550;42.872;25.494;2022-11-14T02:32:57;97468.16;;;2.33;100.00
33185;BME280;19550;42.872;25.494;2022-11-14T02:35:24;97476.72;;;2.36;100.00
33185;BME280;19550;42.872;25.494;2022-11-14T02:37:53;97475.19;;;2.29;100.00
33185;BME280;19550;42.872;25.494;2022-11-14T02:40:19;97469.84;;;2.22;100.00
33185;BME280;19550;42.872;25.494;2022-11-14T02:42:46;97475.34;;;2.11;100.00
33185;BME280;19550;42.872;25.494;2022-11-14T02:45:13;97480.59;;;2.00;100.00
33185;BME280;19550;42.872;25.494;2022-11-14T02:47:40;97477.03;;;1.88;100.00
33185;BME280;19550;42.872;25.494;2022-11-14T02:50:07;97477.41;;;1.92;100.00
33185;BME280;19550;42.872;25.494;2022-11-14T02:52:34;97474.41;;;2.05;100.00
33185;BME280;19550;42.872;25.494;2022-11-14T02:55:03;97463.94;;;2.02;100.00
33185;BME280;19550;42.872;25.494;2022-11-14T02:57:30;97469.66;;;2.12;100.00
33185;BME280;19550;42.872;25.494;2022-11-14T02:59:57;97475.84;;;1.96;100.00
33185;BME280;19550;42.872;25.494;2022-11-14T03:02:23;97472.16;;;1.90;100.00
33185;BME280;19550;42.872;25.494;2022-11-14T03:04:50;97472.28;;;1.84;100.00
33185;BME280;19550;42.872;25.494;2022-11-14T03:07:17;97470.41;;;1.84;100.00
33185;BME280;19550;42.872;25.494;2022-11-14T03:09:44;97471.34;;;1.90;100.00
33185;BME280;19550;42.872;25.494;2022-11-14T03:12:14;97466.34;;;1.87;100.00
33185;BME280;19550;42.872;25.494;2022-11-14T03:14:42;97467.53;;;1.91;100.00
33185;BME280;19550;42.872;25.494;2022-11-14T03:17:09;97451.75;;;1.70;100.00
33185;BME280;19550;42.872;25.494;2022-11-14T03:19:36;97470.97;;;1.86;100.00
33185;BME280;19550;42.872;25.494;2022-11-14T03:22:03;97471.81;;;1.87;100.00
33185;BME280;19550;42.872;25.494;2022-11-14T03:24:30;97476.44;;;1.75;100.00
33185;BME280;19550;42.872;25.494;2022-11-14T03:26:56;97479.88;;;1.82;100.00
33185;BME280;19550;42.872;25.494;2022-11-14T03:29:25;97480.59;;;1.89;100.00
33185;BME280;19550;42.872;25.494;2022-11-14T03:31:51;97484.78;;;1.91;100.00
33185;BME280;19550;42.872;25.494;2022-11-14T03:34:18;97480.72;;;2.06;100.00
33185;BME280;19550;42.872;25.494;2022-11-14T03:36:45;97479.50;;;2.02;100.00
33185;BME280;19550;42.872;25.494;2022-11-14T03:39:12;97478.78;;;2.06;100.00
33185;BME280;19550;42.872;25.494;2022-11-14T03:41:39;97475.59;;;1.97;100.00
33185;BME280;19550;42.872;25.494;2022-11-14T03:44:05;97478.56;;;1.96;100.00
33185;BME280;19550;42.872;25.494;2022-11-14T03:46:34;97469.91;;;1.99;100.00
33185;BME280;19550;42.872;25.494;2022-11-14T03:49:01;97471.94;;;1.92;100.00
33185;BME280;19550;42.872;25.494;2022-11-14T03:51:27;97466.94;;;1.89;100.00
33185;BME280;19550;42.872;25.494;2022-11-14T03:53:54;97464.56;;;1.81;100.00
33185;BME280;19550;42.872;25.494;2022-11-14T03:56:21;97458.53;;;1.79;100.00
33185;BME280;19550;42.872;25.494;2022-11-14T03:58:48;97464.00;;;1.79;100.00
33185;BME280;19550;42.872;25.494;2022-11-14T04:01:15;97463.25;;;1.83;100.00
33185;BME280;19550;42.872;25.494;2022-11-14T04:03:43;97456.03;;;1.77;100.00
33185;BME280;19550;42.872;25.494;2022-11-14T04:06:10;97463.50;;;1.70;100.00
33185;BME280;19550;42.872;25.494;2022-11-14T04:08:38;97472.31;;;1.72;100.00
33185;BME280;19550;42.872;25.494;2022-11-14T04:11:06;97463.16;;;1.78;100.00
33185;BME280;19550;42.872;25.494;2022-11-14T04:13:32;97466.34;;;1.75;100.00
33185;BME280;19550;42.872;25.494;2022-11-14T04:16:00;97458.97;;;1.87;100.00
33185;BME280;19550;42.872;25.494;2022-11-14T04:18:27;97460.16;;;1.91;100.00
33185;BME280;19550;42.872;25.494;2022-11-14T04:20:56;97454.56;;;1.86;100.00
33185;BME280;19550;42.872;25.494;2022-11-14T04:23:22;97458.63;;;1.84;100.00
33185;BME280;19550;42.872;25.494;2022-11-14T04:25:49;97466.00;;;1.83;100.00
33185;BME280;19550;42.872;25.494;2022-11-14T04:28:16;97469.69;;;1.77;100.00
33185;BME280;19550;42.872;25.494;2022-11-14T04:30:43;97466.34;;;1.87;100.00
33185;BME280;19550;42.872;25.494;2022-11-14T04:33:10;97461.50;;;1.77;100.00
33185;BME280;19550;42.872;25.494;2022-11-14T04:35:37;97467.78;;;1.78;100.00
33185;BME280;19550;42.872;25.494;2022-11-14T04:38:06;97466.72;;;1.79;100.00
33185;BME280;19550;42.872;25.494;2022-11-14T04:40:33;97464.94;;;1.84;100.00
33185;BME280;19550;42.872;25.494;2022-11-14T04:42:59;97472.06;;;1.85;100.00
33185;BME280;19550;42.872;25.494;2022-11-14T04:45:26;97464.81;;;1.79;100.00
33185;BME280;19550;42.872;25.494;2022-11-14T04:47:53;97473.69;;;1.86;100.00
33185;BME280;19550;42.872;25.494;2022-11-14T04:50:20;97471.94;;;1.80;100.00
33185;BME280;19550;42.872;25.494;2022-11-14T04:52:50;97482.97;;;1.74;100.00
33185;BME280;19550;42.872;25.494;2022-11-14T04:55:18;97477.41;;;1.69;100.00
33185;BME280;19550;42.872;25.494;2022-11-14T04:57:45;97471.22;;;1.50;100.00
33185;BME280;19550;42.872;25.494;2022-11-14T05:00:13;97477.88;;;1.54;100.00
33185;BME280;19550;42.872;25.494;2022-11-14T05:02:40;97479.31;;;1.56;100.00
33185;BME280;19550;42.872;25.494;2022-11-14T05:05:07;97473.50;;;1.65;100.00
33185;BME280;19550;42.872;25.494;2022-11-14T05:07:34;97484.03;;;1.61;100.00
33185;BME280;19550;42.872;25.494;2022-11-14T05:10:01;97473.13;;;1.61;100.00
33185;BME280;19550;42.872;25.494;2022-11-14T05:12:29;97469.31;;;1.62;100.00
33185;BME280;19550;42.872;25.494;2022-11-14T05:14:56;97476.13;;;1.59;100.00
33185;BME280;19550;42.872;25.494;2022-11-14T05:17:23;97480.13;;;1.57;100.00
33185;BME280;19550;42.872;25.494;2022-11-14T05:19:50;97477.75;;;1.49;100.00
33185;BME280;19550;42.872;25.494;2022-11-14T05:22:17;97474.19;;;1.48;100.00
33185;BME280;19550;42.872;25.494;2022-11-14T05:24:44;97476.81;;;1.55;100.00
33185;BME280;19550;42.872;25.494;2022-11-14T05:27:10;97483.09;;;1.67;100.00
33185;BME280;19550;42.872;25.494;2022-11-14T05:29:39;97472.28;;;1.84;100.00
33185;BME280;19550;42.872;25.494;2022-11-14T05:32:05;97479.88;;;1.82;100.00
33185;BME280;19550;42.872;25.494;2022-11-14T05:34:32;97478.47;;;1.91;100.00
33185;BME280;19550;42.872;25.494;2022-11-14T05:36:59;97474.19;;;1.83;100.00
33185;BME280;19550;42.872;25.494;2022-11-14T05:39:28;97482.50;;;1.88;100.00
33185;BME280;19550;42.872;25.494;2022-11-14T05:41:55;97480.00;;;1.98;100.00
33185;BME280;19550;42.872;25.494;2022-11-14T05:44:21;97480.25;;;1.85;100.00
33185;BME280;19550;42.872;25.494;2022-11-14T05:46:50;97471.34;;;1.78;100.00
33185;BME280;19550;42.872;25.494;2022-11-14T05:49:16;97490.94;;;1.75;100.00
33185;BME280;19550;42.872;25.494;2022-11-14T05:51:43;97475.63;;;1.86;100.00
33185;BME280;19550;42.872;25.494;2022-11-14T05:54:10;97479.66;;;1.83;100.00
33185;BME280;19550;42.872;25.494;2022-11-14T05:56:37;97479.31;;;1.91;100.00
33185;BME280;19550;42.872;25.494;2022-11-14T05:59:04;97474.03;;;2.02;100.00
33185;BME280;19550;42.872;25.494;2022-11-14T06:01:31;97474.84;;;2.14;100.00
33185;BME280;19550;42.872;25.494;2022-11-14T06:03:59;97472.94;;;2.26;100.00
33185;BME280;19550;42.872;25.494;2022-11-14T06:06:26;97475.41;;;2.27;100.00
33185;BME280;19550;42.872;25.494;2022-11-14T06:08:53;97469.31;;;2.49;100.00
33185;BME280;19550;42.872;25.494;2022-11-14T06:11:20;97475.69;;;2.54;100.00
33185;BME280;19550;42.872;25.494;2022-11-14T06:13:47;97475.00;;;2.59;100.00
33185;BME280;19550;42.872;25.494;2022-11-14T06:16:15;97473.75;;;2.66;100.00
33185;BME280;19550;42.872;25.494;2022-11-14T06:18:43;97470.69;;;2.63;100.00
33185;BME280;19550;42.872;25.494;2022-11-14T06:21:13;97476.69;;;2.76;100.00
33185;BME280;19550;42.872;25.494;2022-11-14T06:23:40;97470.47;;;2.81;100.00
33185;BME280;19550;42.872;25.494;2022-11-14T06:26:14;97471.28;;;3.10;100.00
33185;BME280;19550;42.872;25.494;2022-11-14T06:28:45;97478.03;;;3.19;100.00
33185;BME280;19550;42.872;25.494;2022-11-14T06:31:12;97476.97;;;3.37;100.00
33185;BME280;19550;42.872;25.494;2022-11-14T06:33:39;97471.41;;;3.48;100.00
33185;BME280;19550;42.872;25.494;2022-11-14T06:36:07;97471.81;;;3.57;100.00
33185;BME280;19550;42.872;25.494;2022-11-14T06:38:36;97474.03;;;3.60;100.00
33185;BME280;19550;42.872;25.494;2022-11-14T06:41:04;97473.47;;;3.58;100.00
33185;BME280;19550;42.872;25.494;2022-11-14T06:43:32;97480.47;;;3.66;100.00
33185;BME280;19550;42.872;25.494;2022-11-14T06:45:59;97479.69;;;3.70;100.00
33185;BME280;19550;42.872;25.494;2022-11-14T06:48:26;97476.38;;;3.85;100.00
33185;BME280;19550;42.872;25.494;2022-11-14T06:50:54;97483.97;;;3.99;100.00
33185;BME280;19550;42.872;25.494;2022-11-14T06:53:21;97480.97;;;4.18;100.00
33185;BME280;19550;42.872;25.494;2022-11-14T06:55:54;97476.25;;;4.35;100.00
33185;BME280;19550;42.872;25.494;2022-11-14T06:58:24;97467.03;;;4.68;100.00
33185;BME280;19550;42.872;25.494;2022-11-14T07:00:51;97465.97;;;4.96;100.00
33185;BME280;19550;42.872;25.494;2022-11-14T07:03:18;97469.44;;;5.13;100.00
33185;BME280;19550;42.872;25.494;2022-11-14T07:05:45;97460.31;;;5.34;100.00
33185;BME280;19550;42.872;25.494;2022-11-14T07:08:12;97467.59;;;5.50;100.00
33185;BME280;19550;42.872;25.494;2022-11-14T07:10:38;97464.63;;;5.57;100.00
33185;BME280;19550;42.872;25.494;2022-11-14T07:13:07;97456.44;;;5.67;100.00
33185;BME280;19550;42.872;25.494;2022-11-14T07:15:35;97460.91;;;5.73;100.00
33185;BME280;19550;42.872;25.494;2022-11-14T07:18:02;97465.34;;;5.79;100.00
33185;BME280;19550;42.872;25.494;2022-11-14T07:20:29;97451.50;;;6.01;100.00
33185;BME280;19550;42.872;25.494;2022-11-14T07:22:56;97457.38;;;6.15;100.00
33185;BME280;19550;42.872;25.494;2022-11-14T07:25:22;97457.97;;;6.27;100.00
33185;BME280;19550;42.872;25.494;2022-11-14T07:27:49;97450.53;;;6.27;100.00
33185;BME280;19550;42.872;25.494;2022-11-14T07:30:18;97447.78;;;6.27;100.00
33185;BME280;19550;42.872;25.494;2022-11-14T07:32:45;97448.66;;;6.33;100.00
33185;BME280;19550;42.872;25.494;2022-11-14T07:35:11;97453.66;;;6.46;100.00
33185;BME280;19550;42.872;25.494;2022-11-14T07:37:38;97439.44;;;6.69;100.00
33185;BME280;19550;42.872;25.494;2022-11-14T07:40:06;97443.34;;;6.84;100.00
33185;BME280;19550;42.872;25.494;2022-11-14T07:42:33;97446.44;;;7.02;100.00
33185;BME280;19550;42.872;25.494;2022-11-14T07:45:00;97441.22;;;7.21;100.00
33185;BME280;19550;42.872;25.494;2022-11-14T07:47:28;97436.28;;;7.48;100.00
33185;BME280;19550;42.872;25.494;2022-11-14T07:49:55;97436.28;;;7.69;100.00
33185;BME280;19550;42.872;25.494;2022-11-14T07:52:22;97433.47;;;7.99;100.00
33185;BME280;19550;42.872;25.494;2022-11-14T07:54:49;97432.63;;;8.14;100.00
33185;BME280;19550;42.872;25.494;2022-11-14T07:57:16;97443.63;;;8.44;100.00
33185;BME280;19550;42.872;25.494;2022-11-14T07:59:43;97443.81;;;8.68;100.00
33185;BME280;19550;42.872;25.494;2022-11-14T08:02:12;97439.28;;;8.87;100.00
33185;BME280;19550;42.872;25.494;2022-11-14T08:04:41;97445.34;;;8.94;100.00
33185;BME280;19550;42.872;25.494;2022-11-14T08:07:08;97436.19;;;9.04;100.00
33185;BME280;19550;42.872;25.494;2022-11-14T08:09:34;97439.16;;;9.12;100.00
33185;BME280;19550;42.872;25.494;2022-11-14T08:12:01;97442.19;;;9.11;100.00
33185;BME280;19550;42.872;25.494;2022-11-14T08:14:28;97432.47;;;9.18;100.00
33185;BME280;19550;42.872;25.494;2022-11-14T08:16:55;97434.31;;;9.33;100.00
33185;BME280;19550;42.872;25.494;2022-11-14T08:19:22;97440.63;;;9.44;100.00
33185;BME280;19550;42.872;25.494;2022-11-14T08:21:50;97418.34;;;9.59;100.00
33185;BME280;19550;42.872;25.494;2022-11-14T08:24:17;97431.19;;;9.79;100.00
33185;BME280;19550;42.872;25.494;2022-11-14T08:26:44;97428.91;;;9.86;100.00
33185;BME280;19550;42.872;25.494;2022-11-14T08:29:10;97420.19;;;10.03;100.00
33185;BME280;19550;42.872;25.494;2022-11-14T08:31:37;97418.91;;;10.19;100.00
33185;BME280;19550;42.872;25.494;2022-11-14T08:34:04;97417.50;;;10.21;100.00
33185;BME280;19550;42.872;25.494;2022-11-14T08:36:31;97423.88;;;10.46;100.00
33185;BME280;19550;42.872;25.494;2022-11-14T08:38:59;97420.13;;;10.60;100.00
33185;BME280;19550;42.872;25.494;2022-11-14T08:41:26;97416.44;;;10.89;99.51
33185;BME280;19550;42.872;25.494;2022-11-14T08:43:53;97415.53;;;11.12;98.39
33185;BME280;19550;42.872;25.494;2022-11-14T08:46:20;97413.44;;;11.41;98.73
33185;BME280;19550;42.872;25.494;2022-11-14T08:48:47;97422.78;;;11.64;95.80
33185;BME280;19550;42.872;25.494;2022-11-14T08:51:13;97411.69;;;11.83;96.32
33185;BME280;19550;42.872;25.494;2022-11-14T08:53:40;97404.44;;;12.01;95.38
33185;BME280;19550;42.872;25.494;2022-11-14T08:56:09;97399.50;;;12.11;94.74
33185;BME280;19550;42.872;25.494;2022-11-14T08:58:37;97400.38;;;12.39;94.55
33185;BME280;19550;42.872;25.494;2022-11-14T09:01:05;97391.22;;;12.52;93.27
33185;BME280;19550;42.872;25.494;2022-11-14T09:03:33;97385.44;;;12.76;93.04
33185;BME280;19550;42.872;25.494;2022-11-14T09:06:00;97385.31;;;12.95;91.21
33185;BME280;19550;42.872;25.494;2022-11-14T09:08:28;97374.88;;;13.00;92.55
33185;BME280;19550;42.872;25.494;2022-11-14T09:10:58;97372.09;;;13.14;92.48
33185;BME280;19550;42.872;25.494;2022-11-14T09:13:27;97373.06;;;13.32;91.85
33185;BME280;19550;42.872;25.494;2022-11-14T09:15:54;97367.97;;;13.47;95.99
33185;BME280;19550;42.872;25.494;2022-11-14T09:18:20;97365.63;;;13.63;93.68
33185;BME280;19550;42.872;25.494;2022-11-14T09:20:47;97360.41;;;13.92;93.25
33185;BME280;19550;42.872;25.494;2022-11-14T09:23:14;97355.19;;;14.22;91.13
33185;BME280;19550;42.872;25.494;2022-11-14T09:25:41;97346.19;;;14.33;88.95
33185;BME280;19550;42.872;25.494;2022-11-14T09:28:08;97345.94;;;14.44;87.84
33185;BME280;19550;42.872;25.494;2022-11-14T09:30:36;97344.88;;;14.70;86.55
33185;BME280;19550;42.872;25.494;2022-11-14T09:33:05;97337.81;;;14.73;84.69
33185;BME280;19550;42.872;25.494;2022-11-14T09:35:32;97325.69;;;14.78;85.92
33185;BME280;19550;42.872;25.494;2022-11-14T09:38:02;97327.50;;;14.74;85.68
33185;BME280;19550;42.872;25.494;2022-11-14T09:40:30;97324.38;;;14.84;86.87
33185;BME280;19550;42.872;25.494;2022-11-14T09:43:17;97328.03;;;15.01;85.35
33185;BME280;19550;42.872;25.494;2022-11-14T09:45:51;97319.97;;;15.17;85.00
33185;BME280;19550;42.872;25.494;2022-11-14T09:48:21;97313.44;;;15.22;82.95
33185;BME280;19550;42.872;25.494;2022-11-14T09:51:03;97315.84;;;15.49;81.27
33185;BME280;19550;42.872;25.494;2022-11-14T09:53:33;97303.69;;;15.71;79.95
33185;BME280;19550;42.872;25.494;2022-11-14T09:56:02;97308.78;;;15.95;79.22
33185;BME280;19550;42.872;25.494;2022-11-14T09:58:29;97306.63;;;15.92;81.95
33185;BME280;19550;42.872;25.494;2022-11-14T10:01:02;97301.84;;;15.92;78.79
33185;BME280;19550;42.872;25.494;2022-11-14T10:03:39;97295.69;;;16.16;76.19
33185;BME280;19550;42.872;25.494;2022-11-14T10:06:20;97301.94;;;16.21;72.90
33185;BME280;19550;42.872;25.494;2022-11-14T10:08:58;97292.72;;;16.50;71.89
33185;BME280;19550;42.872;25.494;2022-11-14T10:11:32;97286.28;;;16.58;71.20
33185;BME280;19550;42.872;25.494;2022-11-14T10:17:10;97280.16;;;16.94;70.80
33185;BME280;19550;42.872;25.494;2022-11-14T10:19:44;97276.44;;;17.02;68.88
33185;BME280;19550;42.872;25.494;2022-11-14T10:22:24;97279.88;;;16.87;66.84
33185;BME280;19550;42.872;25.494;2022-11-14T10:27:54;97267.44;;;17.18;69.80
33185;BME280;19550;42.872;25.494;2022-11-14T10:30:29;97269.19;;;17.43;70.20
33185;BME280;19550;42.872;25.494;2022-11-14T10:33:18;97258.13;;;17.46;70.74
33185;BME280;19550;42.872;25.494;2022-11-14T10:35:53;97269.47;;;17.29;72.31
33185;BME280;19550;42.872;25.494;2022-11-14T10:38:27;97258.47;;;17.24;74.43
33185;BME280;19550;42.872;25.494;2022-11-14T10:40:59;97246.50;;;17.36;75.21
33185;BME280;19550;42.872;25.494;2022-11-14T10:43:32;97249.75;;;17.26;75.24
33185;BME280;19550;42.872;25.494;2022-11-14T10:46:04;97261.72;;;17.14;76.55
33185;BME280;19550;42.872;25.494;2022-11-14T10:48:35;97246.72;;;17.10;76.46
33185;BME280;19550;42.872;25.494;2022-11-14T10:51:07;97257.44;;;17.29;77.06
33185;BME280;19550;42.872;25.494;2022-11-14T10:53:45;97248.13;;;17.37;77.12
33185;BME280;19550;42.872;25.494;2022-11-14T10:56:15;97241.63;;;17.12;77.08
33185;BME280;19550;42.872;25.494;2022-11-14T10:58:43;97244.47;;;17.03;78.11
33185;BME280;19550;42.872;25.494;2022-11-14T11:01:33;97252.00;;;16.91;79.06
33185;BME280;19550;42.872;25.494;2022-11-14T11:04:11;97253.16;;;17.11;79.03
33185;BME280;19550;42.872;25.494;2022-11-14T11:06:39;97245.63;;;17.23;79.30
33185;BME280;19550;42.872;25.494;2022-11-14T11:09:07;97238.31;;;17.31;79.04
33185;BME280;19550;42.872;25.494;2022-11-14T11:11:55;97250.53;;;17.47;78.09
33185;BME280;19550;42.872;25.494;2022-11-14T11:14:23;97238.38;;;17.22;79.45
33185;BME280;19550;42.872;25.494;2022-11-14T11:19:50;97239.22;;;16.81;80.67
33185;BME280;19550;42.872;25.494;2022-11-14T11:22:29;97231.44;;;16.87;81.70
33185;BME280;19550;42.872;25.494;2022-11-14T11:25:00;97243.38;;;17.17;80.38
33185;BME280;19550;42.872;25.494;2022-11-14T11:27:28;97218.81;;;17.01;80.71
33185;BME280;19550;42.872;25.494;2022-11-14T11:30:06;97231.06;;;17.30;80.06
33185;BME280;19550;42.872;25.494;2022-11-14T11:32:33;97228.44;;;17.13;81.08
33185;BME280;19550;42.872;25.494;2022-11-14T11:35:05;97227.81;;;17.07;79.91
33185;BME280;19550;42.872;25.494;2022-11-14T11:37:38;97218.75;;;17.22;78.96
33185;BME280;19550;42.872;25.494;2022-11-14T11:40:14;97229.66;;;17.03;79.39
33185;BME280;19550;42.872;25.494;2022-11-14T11:42:45;97230.25;;;17.29;79.21
33185;BME280;19550;42.872;25.494;2022-11-14T11:45:16;97232.31;;;16.99;80.56
33185;BME280;19550;42.872;25.494;2022-11-14T11:47:48;97221.66;;;16.43;81.31
33185;BME280;19550;42.872;25.494;2022-11-14T11:50:19;97222.72;;;16.29;82.46
33185;BME280;19550;42.872;25.494;2022-11-14T11:52:50;97231.44;;;15.99;84.08
33185;BME280;19550;42.872;25.494;2022-11-14T11:55:23;97227.19;;;15.84;84.67
33185;BME280;19550;42.872;25.494;2022-11-14T11:57:57;97223.19;;;15.56;86.27
33185;BME280;19550;42.872;25.494;2022-11-14T12:00:27;97218.47;;;14.96;88.03
33185;BME280;19550;42.872;25.494;2022-11-14T12:02:54;97220.94;;;14.80;89.56
33185;BME280;19550;42.872;25.494;2022-11-14T12:05:30;97222.22;;;14.57;90.46
33185;BME280;19550;42.872;25.494;2022-11-14T12:08:01;97223.84;;;14.49;91.51
33185;BME280;19550;42.872;25.494;2022-11-14T12:10:32;97226.16;;;14.47;91.36
33185;BME280;19550;42.872;25.494;2022-11-14T12:13:29;97218.69;;;14.25;92.27
33185;BME280;19550;42.872;25.494;2022-11-14T12:16:10;97215.56;;;14.18;92.72
33185;BME280;19550;42.872;25.494;2022-11-14T12:22:01;97223.56;;;14.11;94.24
33185;BME280;19550;42.872;25.494;2022-11-14T12:27:53;97225.69;;;13.66;95.56
33185;BME280;19550;42.872;25.494;2022-11-14T12:30:26;97227.34;;;13.67;95.82
33185;BME280;19550;42.872;25.494;2022-11-14T12:32:57;97225.41;;;13.45;96.85
33185;BME280;19550;42.872;25.494;2022-11-14T12:35:30;97227.31;;;13.36;97.29
33185;BME280;19550;42.872;25.494;2022-11-14T12:38:02;97231.50;;;13.25;97.16
33185;BME280;19550;42.872;25.494;2022-11-14T12:40:32;97240.34;;;13.05;98.32
33185;BME280;19550;42.872;25.494;2022-11-14T12:43:01;97230.22;;;13.09;98.89
33185;BME280;19550;42.872;25.494;2022-11-14T12:45:56;97231.59;;;12.98;98.90
33185;BME280;19550;42.872;25.494;2022-11-14T12:48:32;97236.28;;;12.89;99.55
33185;BME280;19550;42.872;25.494;2022-11-14T12:51:00;97237.34;;;12.79;99.92
33185;BME280;19550;42.872;25.494;2022-11-14T12:53:43;97236.06;;;12.63;100.00
33185;BME280;19550;42.872;25.494;2022-11-14T12:56:25;97245.03;;;12.60;100.00
33185;BME280;19550;42.872;25.494;2022-11-14T12:59:18;97243.72;;;12.30;100.00
33185;BME280;19550;42.872;25.494;2022-11-14T13:02:02;97245.50;;;12.26;100.00
33185;BME280;19550;42.872;25.494;2022-11-14T13:04:39;97246.63;;;11.84;100.00
33185;BME280;19550;42.872;25.494;2022-11-14T13:07:22;97247.34;;;11.62;100.00
33185;BME280;19550;42.872;25.494;2022-11-14T13:10:12;97252.97;;;11.43;100.00
33185;BME280;19550;42.872;25.494;2022-11-14T13:12:41;97243.69;;;11.34;100.00
33185;BME280;19550;42.872;25.494;2022-11-14T13:15:30;97243.44;;;11.31;100.00
33185;BME280;19550;42.872;25.494;2022-11-14T13:18:19;97246.81;;;11.14;100.00